Time;durP1;ratioP1;P1;durP2;ratioP2;P2;SDS_P1;SDS_P2;PMS_P1;PMS_P2;Temp;Humidity;BMP_temperature;BMP_pressure;BME280_temperature;BME280_humidity;BME280_pressure;Samples;Min_cycle;Max_cycle;Signal;HPM_P1;HPM_P2
2022/05/28 00:02:06;;;;;;;6.40;1.37;;;11.50;99.90;;;;;;5031203;28;20446;-51
2022/05/28 00:04:33;;;;;;;7.50;1.90;;;10.90;99.90;;;;;;5031349;28;20947;-51
2022/05/28 00:06:59;;;;;;;6.30;1.90;;;11.30;99.90;;;;;;5031844;28;20833;-51
2022/05/28 00:09:26;;;;;;;6.33;1.80;;;11.50;99.90;;;;;;5031036;28;20824;-50
2022/05/28 00:11:52;;;;;;;7.00;1.60;;;11.50;99.90;;;;;;5030296;28;20452;-50
2022/05/28 00:14:20;;;;;;;8.07;1.80;;;11.30;99.90;;;;;;5031557;28;20487;-50
2022/05/28 00:16:47;;;;;;;4.07;1.50;;;11.30;99.90;;;;;;5031191;28;20439;-50
2022/05/28 00:19:13;;;;;;;3.00;1.63;;;11.90;99.90;;;;;;5030856;28;20467;-50
2022/05/28 00:21:40;;;;;;;8.60;2.37;;;11.50;99.90;;;;;;5031546;28;20836;-50
2022/05/28 00:24:07;;;;;;;10.40;1.93;;;11.30;99.90;;;;;;5031384;28;20437;-51
2022/05/28 00:26:33;;;;;;;6.20;1.70;;;11.60;99.90;;;;;;5031472;28;20435;-51
2022/05/28 00:29:00;;;;;;;6.30;1.70;;;11.50;99.90;;;;;;5031089;28;20463;-50
2022/05/28 00:31:28;;;;;;;8.70;2.33;;;11.30;99.90;;;;;;5031178;28;20834;-50
2022/05/28 00:33:55;;;;;;;6.30;1.77;;;11.30;99.90;;;;;;5031193;28;20497;-51
2022/05/28 00:36:21;;;;;;;4.93;2.00;;;11.30;99.90;;;;;;5030003;28;20444;-51
2022/05/28 00:38:48;;;;;;;6.70;2.23;;;11.20;99.90;;;;;;5030687;28;20537;-50
2022/05/28 00:41:15;;;;;;;6.53;2.10;;;11.10;99.90;;;;;;5031213;28;20435;-50
2022/05/28 00:43:44;;;;;;;4.17;1.90;;;11.40;99.90;;;;;;5031203;28;20431;-51
2022/05/28 00:46:13;;;;;;;7.63;2.30;;;11.40;99.90;;;;;;5031020;28;20454;-50
2022/05/28 00:48:46;;;;;;;5.47;1.90;;;11.10;99.90;;;;;;5030614;28;20444;-52
2022/05/28 00:51:16;;;;;;;6.33;2.37;;;11.20;99.90;;;;;;5031118;28;20438;-50
2022/05/28 00:53:43;;;;;;;7.50;2.07;;;11.60;99.90;;;;;;5031236;28;20553;-51
2022/05/28 00:56:11;;;;;;;7.83;2.40;;;11.30;99.90;;;;;;5031296;28;20435;-50
2022/05/28 00:58:38;;;;;;;9.67;2.67;;;11.40;99.90;;;;;;5030785;28;20435;-50
2022/05/28 01:01:07;;;;;;;7.07;2.90;;;11.50;99.90;;;;;;5034172;28;20439;-51
2022/05/28 01:03:38;;;;;;;3.57;1.83;;;11.60;99.90;;;;;;5034616;28;20470;-50
2022/05/28 01:06:12;;;;;;;6.00;2.30;;;10.60;99.90;;;;;;5034590;28;20398;-50
2022/05/28 01:08:44;;;;;;;4.93;1.80;;;11.10;99.90;;;;;;5034086;28;20432;-51
2022/05/28 01:11:20;;;;;;;6.07;1.97;;;11.30;99.90;;;;;;5034329;28;20447;-51
2022/05/28 01:13:52;;;;;;;5.63;2.27;;;11.30;99.90;;;;;;5034371;28;20506;-51
2022/05/28 01:16:25;;;;;;;8.37;2.70;;;11.10;99.90;;;;;;5034142;28;20563;-51
2022/05/28 01:18:57;;;;;;;8.93;2.53;;;11.10;99.90;;;;;;5033924;28;20439;-50
2022/05/28 01:21:35;;;;;;;7.60;1.87;;;11.20;99.90;;;;;;5034418;28;20774;-49
2022/05/28 01:24:07;;;;;;;5.93;1.83;;;10.90;99.90;;;;;;5033085;28;20809;-51
2022/05/28 01:26:44;;;;;;;11.67;2.70;;;11.40;99.90;;;;;;5034353;28;20928;-50
2022/05/28 01:29:15;;;;;;;6.53;2.30;;;11.30;99.90;;;;;;5033836;28;20455;-49
2022/05/28 01:31:42;;;;;;;9.20;2.10;;;11.10;99.90;;;;;;5033898;28;20438;-50
2022/05/28 01:34:10;;;;;;;9.93;2.30;;;11.40;99.90;;;;;;5034304;28;20478;-50
2022/05/28 01:36:37;;;;;;;12.40;2.00;;;10.90;99.90;;;;;;5034082;28;20435;-50
2022/05/28 01:39:06;;;;;;;12.67;2.23;;;10.60;99.90;;;;;;5033595;28;20960;-50
2022/05/28 01:41:35;;;;;;;9.43;2.00;;;11.10;99.90;;;;;;5033806;28;20440;-50
2022/05/28 01:44:04;;;;;;;8.97;2.40;;;11.40;99.90;;;;;;5034247;28;20438;-51
2022/05/28 01:46:34;;;;;;;8.07;2.37;;;11.00;99.90;;;;;;5033738;28;20432;-50
2022/05/28 01:49:01;;;;;;;6.40;1.93;;;10.80;99.90;;;;;;5033653;28;20444;-51
2022/05/28 01:51:37;;;;;;;5.87;1.97;;;11.40;99.90;;;;;;5033906;28;20435;-50
2022/05/28 01:54:07;;;;;;;8.83;2.33;;;10.90;99.90;;;;;;5033902;28;20478;-50
2022/05/28 01:56:34;;;;;;;6.30;2.27;;;11.40;99.90;;;;;;5033716;28;20842;-50
2022/05/28 01:59:02;;;;;;;6.37;1.80;;;10.90;99.90;;;;;;5033351;28;20455;-50
2022/05/28 02:01:29;;;;;;;8.60;2.00;;;11.00;99.90;;;;;;5032229;28;20443;-50
2022/05/28 02:03:59;;;;;;;8.90;2.90;;;11.40;99.90;;;;;;5033788;28;20435;-51
2022/05/28 02:06:26;;;;;;;9.00;2.43;;;11.00;99.90;;;;;;5033511;28;20443;-50
2022/05/28 02:08:55;;;;;;;10.37;2.20;;;11.00;99.90;;;;;;5033019;28;20500;-51
2022/05/28 02:11:25;;;;;;;14.33;3.20;;;11.20;99.90;;;;;;5033224;28;20443;-50
2022/05/28 02:14:02;;;;;;;12.63;2.50;;;10.90;99.90;;;;;;5033110;28;20505;-50
2022/05/28 02:16:39;;;;;;;8.27;2.90;;;10.30;99.90;;;;;;5033303;28;20438;-51
2022/05/28 02:19:13;;;;;;;7.33;2.10;;;10.90;99.90;;;;;;5033050;28;20451;-50
2022/05/28 02:21:47;;;;;;;6.97;2.10;;;11.20;99.90;;;;;;5033492;28;20435;-50
2022/05/28 02:24:22;;;;;;;6.30;2.03;;;11.00;99.90;;;;;;5033063;28;20947;-51
2022/05/28 02:26:52;;;;;;;8.00;2.07;;;11.00;99.90;;;;;;5033273;28;20436;-51
2022/05/28 02:29:19;;;;;;;6.17;2.03;;;11.30;99.90;;;;;;5032402;28;20982;-51
2022/05/28 02:31:49;;;;;;;6.77;2.20;;;11.30;99.90;;;;;;5032780;28;20435;-50
2022/05/28 02:34:18;;;;;;;9.30;2.10;;;11.20;99.90;;;;;;5032685;28;20502;-50
2022/05/28 02:36:45;;;;;;;8.80;2.23;;;10.40;99.90;;;;;;5032860;28;20850;-50
2022/05/28 02:39:12;;;;;;;8.90;2.43;;;11.30;99.90;;;;;;5032436;28;20455;-50
2022/05/28 02:41:39;;;;;;;11.70;2.73;;;10.90;99.90;;;;;;5032911;28;20427;-51
2022/05/28 02:44:06;;;;;;;10.13;2.53;;;11.00;99.90;;;;;;5032728;28;20467;-50
2022/05/28 02:46:35;;;;;;;6.87;2.23;;;11.30;99.90;;;;;;5032700;28;20924;-50
2022/05/28 02:49:03;;;;;;;5.73;2.40;;;10.60;99.90;;;;;;5032267;28;20455;-50
2022/05/28 02:51:30;;;;;;;9.83;1.80;;;10.20;99.90;;;;;;5032974;28;20782;-51
2022/05/28 02:53:57;;;;;;;6.30;1.93;;;11.10;99.90;;;;;;5032732;28;20924;-51
2022/05/28 02:56:23;;;;;;;7.83;1.90;;;10.70;99.90;;;;;;5032761;28;20498;-50
2022/05/28 02:58:50;;;;;;;9.83;2.57;;;10.80;99.90;;;;;;5032104;28;20443;-50
2022/05/28 03:01:19;;;;;;;7.50;2.17;;;10.80;99.90;;;;;;5032532;28;20470;-51
2022/05/28 03:03:47;;;;;;;7.80;2.50;;;10.60;99.90;;;;;;5032706;28;20431;-51
2022/05/28 03:06:15;;;;;;;7.30;2.37;;;11.00;99.90;;;;;;5032736;28;20970;-51
2022/05/28 03:08:42;;;;;;;4.80;1.50;;;10.80;99.90;;;;;;5032134;28;20443;-50
2022/05/28 03:11:09;;;;;;;7.10;2.50;;;10.80;99.90;;;;;;5032386;28;20447;-50
2022/05/28 03:13:36;;;;;;;7.73;2.10;;;10.80;99.90;;;;;;5032202;28;20836;-52
2022/05/28 03:16:03;;;;;;;7.37;2.73;;;11.20;99.90;;;;;;5032294;28;20436;-50
2022/05/28 03:18:29;;;;;;;6.10;1.80;;;11.30;99.90;;;;;;5031762;28;20451;-51
2022/05/28 03:20:56;;;;;;;5.10;2.80;;;10.90;99.90;;;;;;5031991;28;20458;-52
2022/05/28 03:23:24;;;;;;;6.00;2.30;;;10.80;99.90;;;;;;5031533;28;20447;-51
2022/05/28 03:25:51;;;;;;;7.93;2.60;;;10.90;99.90;;;;;;5032217;28;20442;-50
2022/05/28 03:28:17;;;;;;;10.80;2.40;;;11.00;99.90;;;;;;5032172;28;20542;-51
2022/05/28 03:30:44;;;;;;;8.93;2.27;;;11.00;99.90;;;;;;5031575;28;20451;-50
2022/05/28 03:33:11;;;;;;;8.30;1.83;;;11.50;99.90;;;;;;5031848;28;20796;-51
2022/05/28 03:35:39;;;;;;;6.17;2.10;;;11.10;99.90;;;;;;5031755;28;20483;-50
2022/05/28 03:38:06;;;;;;;8.60;2.00;;;10.60;99.90;;;;;;5032202;28;20440;-51
2022/05/28 03:40:35;;;;;;;6.07;2.13;;;11.10;99.90;;;;;;5031598;28;20455;-51
2022/05/28 03:43:01;;;;;;;5.53;2.23;;;10.60;99.90;;;;;;5031972;28;20450;-51
2022/05/28 03:45:29;;;;;;;7.20;1.80;;;11.20;99.90;;;;;;5031731;28;20439;-51
2022/05/28 03:47:56;;;;;;;7.83;2.43;;;11.50;99.90;;;;;;5031748;28;20924;-50
2022/05/28 03:50:23;;;;;;;9.33;2.10;;;11.30;99.90;;;;;;5031300;28;21036;-50
2022/05/28 03:52:49;;;;;;;5.97;1.73;;;11.00;99.90;;;;;;5031517;28;20435;-51
2022/05/28 03:55:16;;;;;;;7.93;2.47;;;11.20;99.90;;;;;;5031643;28;20886;-51
2022/05/28 03:57:46;;;;;;;9.20;2.13;;;11.80;99.90;;;;;;5031652;28;20954;-51
2022/05/28 04:00:13;;;;;;;5.53;1.53;;;11.60;99.90;;;;;;5031110;28;20976;-51
2022/05/28 04:02:40;;;;;;;5.97;1.83;;;11.40;99.90;;;;;;5031781;28;20435;-49
2022/05/28 04:05:07;;;;;;;5.33;1.73;;;10.90;99.90;;;;;;5031677;28;20418;-51
2022/05/28 04:07:34;;;;;;;8.90;2.70;;;11.70;99.90;;;;;;5031756;28;20801;-51
2022/05/28 04:10:00;;;;;;;7.50;2.50;;;11.80;99.90;;;;;;5053890;23;20498;-44
2022/05/28 04:12:27;;;;;;;7.57;2.23;;;11.40;99.90;;;;;;5032193;28;20446;-43
2022/05/28 04:14:55;;;;;;;9.00;2.40;;;11.70;99.90;;;;;;5032094;28;20501;-44
2022/05/28 04:17:22;;;;;;;14.53;4.20;;;11.70;99.90;;;;;;5032241;28;20431;-42
2022/05/28 04:19:48;;;;;;;8.70;1.80;;;11.70;99.90;;;;;;5032320;28;20463;-43
2022/05/28 04:22:15;;;;;;;5.60;1.90;;;11.80;99.90;;;;;;5035424;28;20442;-43
2022/05/28 04:24:42;;;;;;;5.40;1.77;;;11.50;99.90;;;;;;5032898;28;20439;-44
2022/05/28 04:27:09;;;;;;;7.33;2.20;;;11.70;99.90;;;;;;5032691;28;20797;-44
2022/05/28 04:29:36;;;;;;;5.17;2.13;;;12.50;99.90;;;;;;5031840;28;20430;-44
2022/05/28 04:32:04;;;;;;;4.47;2.10;;;11.80;99.90;;;;;;5032415;28;20439;-44
2022/05/28 04:34:31;;;;;;;9.70;2.57;;;12.10;99.90;;;;;;5034407;28;20476;-44
2022/05/28 04:36:57;;;;;;;7.83;2.70;;;12.20;99.90;;;;;;5036345;28;20463;-43
2022/05/28 04:39:24;;;;;;;9.37;2.30;;;12.20;99.90;;;;;;5035954;28;20470;-44
2022/05/28 04:41:51;;;;;;;6.57;2.10;;;12.40;99.90;;;;;;5034889;28;20440;-43
2022/05/28 04:44:17;;;;;;;6.03;2.47;;;12.00;99.90;;;;;;5034719;28;20935;-44
2022/05/28 04:46:44;;;;;;;8.27;2.10;;;12.10;99.90;;;;;;5035874;28;20442;-44
2022/05/28 04:49:12;;;;;;;2.70;1.20;;;11.90;99.90;;;;;;5035498;28;20414;-44
2022/05/28 04:51:39;;;;;;;8.37;1.67;;;11.60;99.90;;;;;;5035953;28;20432;-44
2022/05/28 04:54:05;;;;;;;3.20;1.30;;;12.30;99.90;;;;;;5035583;28;20468;-44
2022/05/28 04:56:32;;;;;;;5.70;2.03;;;11.90;99.90;;;;;;5036363;28;20432;-44
2022/05/28 04:59:00;;;;;;;5.43;1.77;;;12.00;99.90;;;;;;5036137;28;20936;-44
2022/05/28 05:01:27;;;;;;;3.00;1.30;;;12.30;99.90;;;;;;5035704;28;20428;-44
2022/05/28 05:03:53;;;;;;;4.40;1.63;;;12.20;99.90;;;;;;5035825;28;20921;-44
2022/05/28 05:06:21;;;;;;;5.10;1.80;;;12.70;99.90;;;;;;5035460;28;20767;-44
2022/05/28 05:08:48;;;;;;;4.50;1.20;;;12.80;99.90;;;;;;5035077;28;20440;-44
2022/05/28 05:11:15;;;;;;;4.17;1.73;;;12.80;99.90;;;;;;5034950;28;20464;-42
2022/05/28 05:13:42;;;;;;;4.10;1.30;;;12.50;99.90;;;;;;5035851;28;20842;-43
2022/05/28 05:16:09;;;;;;;5.33;1.40;;;12.40;99.90;;;;;;5037057;28;20479;-42
2022/05/28 05:18:36;;;;;;;3.40;1.63;;;12.70;99.90;;;;;;5036275;28;20458;-42
2022/05/28 05:21:03;;;;;;;6.47;1.77;;;12.60;99.90;;;;;;5037081;28;20464;-44
2022/05/28 05:23:32;;;;;;;5.90;2.07;;;13.00;99.90;;;;;;5036483;28;20436;-44
2022/05/28 05:25:58;;;;;;;4.33;1.50;;;13.00;99.90;;;;;;5035170;28;20434;-43
2022/05/28 05:28:25;;;;;;;5.30;1.33;;;12.70;99.90;;;;;;5034819;28;20427;-43
2022/05/28 05:30:51;;;;;;;3.87;1.13;;;13.20;99.90;;;;;;5034979;28;20467;-44
2022/05/28 05:33:18;;;;;;;3.83;1.47;;;13.20;99.90;;;;;;5035998;28;20437;-43
2022/05/28 05:35:45;;;;;;;3.30;1.20;;;13.50;99.90;;;;;;5035002;28;20475;-43
2022/05/28 05:38:11;;;;;;;3.07;1.40;;;13.00;99.90;;;;;;5035135;28;20439;-43
2022/05/28 05:40:39;;;;;;;6.23;1.57;;;12.90;99.90;;;;;;5032907;28;20464;-43
2022/05/28 05:43:06;;;;;;;5.60;1.70;;;13.20;99.90;;;;;;5034749;28;20432;-43
2022/05/28 05:45:33;;;;;;;5.93;1.40;;;13.00;99.90;;;;;;5034536;28;20439;-43
2022/05/28 05:48:00;;;;;;;6.10;1.50;;;13.00;99.90;;;;;;5035716;28;20523;-43
2022/05/28 05:50:26;;;;;;;4.13;1.47;;;13.00;99.90;;;;;;5036843;28;20456;-43
2022/05/28 05:52:53;;;;;;;4.13;1.50;;;13.20;99.90;;;;;;5037291;28;20437;-43
2022/05/28 05:55:20;;;;;;;8.17;2.27;;;13.20;99.90;;;;;;5036149;28;20853;-43
2022/05/28 05:57:47;;;;;;;3.90;1.90;;;13.40;99.90;;;;;;5034156;28;20433;-45
2022/05/28 06:00:15;;;;;;;5.17;1.77;;;13.50;99.90;;;;;;5034149;28;20470;-43
2022/05/28 06:02:42;;;;;;;4.20;1.37;;;13.80;99.90;;;;;;5034162;28;20447;-44
2022/05/28 06:05:09;;;;;;;4.97;1.67;;;13.60;99.90;;;;;;5034171;28;20781;-43
2022/05/28 06:07:38;;;;;;;4.60;1.20;;;13.50;99.90;;;;;;5034435;28;20438;-43
2022/05/28 06:10:08;;;;;;;3.70;1.30;;;13.60;99.90;;;;;;5033607;28;20497;-43
2022/05/28 06:12:35;;;;;;;10.60;1.50;;;13.40;99.90;;;;;;5034399;28;20478;-43
2022/05/28 06:15:03;;;;;;;7.07;1.80;;;13.30;99.90;;;;;;5034321;28;20479;-43
2022/05/28 06:17:30;;;;;;;2.10;1.20;;;13.20;99.90;;;;;;5033716;28;20443;-43
2022/05/28 06:19:56;;;;;;;5.40;1.83;;;13.30;99.90;;;;;;5031738;28;20471;-43
2022/05/28 06:22:23;;;;;;;6.97;1.73;;;13.30;99.90;;;;;;5033720;28;20444;-43
2022/05/28 06:24:50;;;;;;;6.27;1.90;;;13.00;99.90;;;;;;5033770;28;20441;-44
2022/05/28 06:27:16;;;;;;;6.23;1.90;;;13.00;99.90;;;;;;5033893;28;20958;-44
2022/05/28 06:29:43;;;;;;;4.67;1.50;;;13.00;99.90;;;;;;5033174;28;20870;-44
2022/05/28 06:32:11;;;;;;;3.60;1.43;;;13.10;99.90;;;;;;5033844;28;20428;-45
2022/05/28 06:34:37;;;;;;;3.03;1.83;;;12.90;99.90;;;;;;5033729;28;20525;-42
2022/05/28 06:37:07;;;;;;;3.77;1.53;;;12.80;99.90;;;;;;5034140;28;20433;-42
2022/05/28 06:39:34;;;;;;;4.20;1.10;;;13.40;99.90;;;;;;5033252;28;20463;-45
2022/05/28 06:42:01;;;;;;;14.23;1.83;;;13.50;99.90;;;;;;5032146;28;20449;-43
2022/05/28 06:44:28;;;;;;;5.13;1.90;;;13.10;99.90;;;;;;5033212;28;20420;-43
2022/05/28 06:46:54;;;;;;;5.13;1.80;;;13.50;99.70;;;;;;5033543;28;20488;-43
2022/05/28 06:49:22;;;;;;;5.10;1.40;;;13.60;99.60;;;;;;5033407;28;20988;-44
2022/05/28 06:51:50;;;;;;;10.03;1.73;;;14.10;99.20;;;;;;5033524;28;20909;-44
2022/05/28 06:54:16;;;;;;;8.73;1.70;;;14.20;99.00;;;;;;5033754;28;20465;-43
2022/05/28 06:56:43;;;;;;;3.67;1.40;;;13.90;98.70;;;;;;5032624;28;20893;-43
2022/05/28 06:59:10;;;;;;;10.63;1.80;;;14.10;98.60;;;;;;5032779;28;20441;-43
2022/05/28 07:01:37;;;;;;;6.47;1.93;;;14.10;98.40;;;;;;5033293;28;20450;-44
2022/05/28 07:04:05;;;;;;;7.57;2.40;;;14.00;98.10;;;;;;5031627;28;20462;-43
2022/05/28 07:06:34;;;;;;;4.40;1.57;;;14.00;97.70;;;;;;5033165;28;20486;-43
2022/05/28 07:09:00;;;;;;;8.13;1.67;;;14.10;97.70;;;;;;5032733;28;20531;-43
2022/05/28 07:11:27;;;;;;;3.93;1.70;;;14.10;97.70;;;;;;5033085;28;20433;-43
2022/05/28 07:13:54;;;;;;;6.30;2.17;;;14.60;97.60;;;;;;5033069;28;20902;-43
2022/05/28 07:16:20;;;;;;;8.77;2.10;;;14.70;97.10;;;;;;5033285;28;20487;-43
2022/05/28 07:18:47;;;;;;;5.83;2.03;;;14.60;96.90;;;;;;5032267;28;20445;-43
2022/05/28 07:21:13;;;;;;;7.00;1.97;;;14.50;96.60;;;;;;5033014;28;20480;-44
2022/05/28 07:23:41;;;;;;;6.03;1.17;;;13.90;96.20;;;;;;5032803;28;20467;-43
2022/05/28 07:26:11;;;;;;;7.07;1.80;;;14.30;96.50;;;;;;5032728;28;20437;-43
2022/05/28 07:28:39;;;;;;;4.90;1.80;;;14.40;96.60;;;;;;5032619;28;20433;-43
2022/05/28 07:31:08;;;;;;;11.53;2.20;;;14.50;96.30;;;;;;5032736;28;20456;-43
2022/05/28 07:33:37;;;;;;;5.30;1.40;;;14.70;96.10;;;;;;5032966;28;20435;-44
2022/05/28 07:36:06;;;;;;;4.97;1.87;;;14.80;96.00;;;;;;5032330;28;20478;-45
2022/05/28 07:38:33;;;;;;;7.77;2.03;;;14.80;95.90;;;;;;5032232;28;20842;-44
2022/05/28 07:41:03;;;;;;;7.73;2.03;;;15.30;95.90;;;;;;5033474;28;20807;-44
2022/05/28 07:43:30;;;;;;;13.03;4.33;;;15.10;95.50;;;;;;5033170;28;20440;-42
2022/05/28 07:45:57;;;;;;;6.33;1.47;;;15.20;95.50;;;;;;5032707;28;20942;-43
2022/05/28 07:48:23;;;;;;;6.13;1.90;;;14.90;95.30;;;;;;5032249;28;20442;-43
2022/05/28 07:50:51;;;;;;;5.63;2.07;;;14.90;95.10;;;;;;5032270;28;20458;-44
2022/05/28 07:53:17;;;;;;;6.83;1.63;;;14.80;94.80;;;;;;5032622;28;20433;-43
2022/05/28 07:55:44;;;;;;;4.60;1.47;;;15.20;94.70;;;;;;5030886;28;20482;-44
2022/05/28 07:58:14;;;;;;;5.03;2.83;;;15.50;94.90;;;;;;5032520;28;20794;-44
2022/05/28 08:00:44;;;;;;;4.73;1.90;;;15.60;94.20;;;;;;5031791;28;20501;-44
2022/05/28 08:03:11;;;;;;;6.70;1.50;;;15.60;93.80;;;;;;5032423;28;20445;-44
2022/05/28 08:05:41;;;;;;;6.40;1.97;;;16.00;93.50;;;;;;5032520;28;20814;-44
2022/05/28 08:08:08;;;;;;;5.83;1.50;;;15.90;92.90;;;;;;5033658;28;20776;-44
2022/05/28 08:10:36;;;;;;;7.47;1.97;;;15.90;92.50;;;;;;5036132;28;20482;-43
2022/05/28 08:13:04;;;;;;;9.20;2.93;;;15.80;91.90;;;;;;5036283;28;20450;-44
2022/05/28 08:15:34;;;;;;;6.77;2.73;;;15.70;92.10;;;;;;5036284;28;20485;-44
2022/05/28 08:18:01;;;;;;;4.43;1.70;;;15.80;92.00;;;;;;5036267;28;20960;-44
2022/05/28 08:23:11;;;;;;;11.00;2.40;;;15.70;91.30;;;;;;5034251;28;20538;-44
2022/05/28 08:25:39;;;;;;;4.07;1.40;;;15.70;90.90;;;;;;5034820;28;20445;-44
2022/05/28 08:28:06;;;;;;;7.00;2.80;;;16.00;91.20;;;;;;5034776;28;20455;-44
2022/05/28 08:30:34;;;;;;;9.03;1.90;;;16.10;91.10;;;;;;5034624;28;20479;-42
2022/05/28 08:33:00;;;;;;;5.23;1.80;;;16.20;90.80;;;;;;5036406;28;20442;-45
2022/05/28 08:35:27;;;;;;;6.20;1.80;;;16.00;90.10;;;;;;5036313;28;20838;-44
2022/05/28 08:37:54;;;;;;;6.33;1.73;;;16.10;89.80;;;;;;5036336;28;20435;-44
2022/05/28 08:40:23;;;;;;;6.80;2.30;;;16.20;89.00;;;;;;5035659;28;20508;-45
2022/05/28 08:42:50;;;;;;;7.07;2.13;;;15.80;89.00;;;;;;5036113;28;20432;-44
2022/05/28 08:45:18;;;;;;;4.33;1.80;;;15.50;88.20;;;;;;5035979;28;20436;-43
2022/05/28 08:47:48;;;;;;;6.93;1.70;;;15.90;88.30;;;;;;5036088;28;20431;-43
2022/05/28 08:50:16;;;;;;;3.20;1.67;;;16.10;87.90;;;;;;5035211;28;20531;-44
2022/05/28 08:52:48;;;;;;;9.87;1.87;;;16.30;88.10;;;;;;5035043;28;20438;-44
2022/05/28 08:55:18;;;;;;;5.40;1.70;;;16.20;87.30;;;;;;5035852;28;20453;-44
2022/05/28 08:57:53;;;;;;;5.73;1.90;;;16.70;87.70;;;;;;5035947;28;20423;-45
2022/05/28 09:00:29;;;;;;;6.30;2.03;;;16.40;85.60;;;;;;5035115;28;20482;-44
2022/05/28 09:03:03;;;;;;;9.47;1.63;;;16.30;84.70;;;;;;5035685;28;20438;-44
2022/05/28 09:05:34;;;;;;;4.87;1.80;;;16.30;86.10;;;;;;5035755;28;20437;-44
2022/05/28 09:08:02;;;;;;;10.10;2.43;;;16.00;87.30;;;;;;5036008;28;20438;-44
2022/05/28 09:10:36;;;;;;;5.87;2.07;;;16.00;87.80;;;;;;5034847;28;20505;-43
2022/05/28 09:13:07;;;;;;;7.30;2.10;;;15.80;87.10;;;;;;5035173;28;20527;-44
2022/05/28 09:15:37;;;;;;;5.97;1.80;;;15.80;87.30;;;;;;5035139;28;20467;-43
2022/05/28 09:18:06;;;;;;;6.13;2.30;;;15.80;87.30;;;;;;5035978;28;20436;-44
2022/05/28 09:20:37;;;;;;;8.00;2.27;;;15.90;86.80;;;;;;5034619;28;20463;-45
2022/05/28 09:23:03;;;;;;;7.07;3.27;;;15.80;86.00;;;;;;5035623;28;20439;-43
2022/05/28 09:25:33;;;;;;;5.10;2.97;;;15.80;84.90;;;;;;5035434;28;20908;-43
2022/05/28 09:28:11;;;;;;;7.60;2.47;;;15.60;84.90;;;;;;5035596;28;20447;-43
2022/05/28 09:30:45;;;;;;;7.27;1.93;;;16.00;85.40;;;;;;5034829;28;20460;-45
2022/05/28 09:33:31;;;;;;;4.50;2.80;;;16.20;84.60;;;;;;5035755;28;20784;-45
2022/05/28 09:36:06;;;;;;;7.13;2.00;;;16.50;83.70;;;;;;5036065;28;20995;-43
2022/05/28 09:38:43;;;;;;;4.83;1.77;;;16.50;83.50;;;;;;5035046;28;20435;-44
2022/05/28 09:41:27;;;;;;;10.60;2.03;;;16.40;80.00;;;;;;5035419;28;20462;-45
2022/05/28 09:44:04;;;;;;;5.13;2.10;;;16.50;80.90;;;;;;5035313;28;20447;-44
2022/05/28 09:46:36;;;;;;;6.03;2.33;;;16.40;80.80;;;;;;5035114;28;20954;-45
2022/05/28 09:49:10;;;;;;;6.93;1.97;;;16.20;80.20;;;;;;5034779;28;20440;-45
2022/05/28 09:51:37;;;;;;;4.37;1.53;;;16.80;81.10;;;;;;5035218;28;20443;-44
2022/05/28 09:54:17;;;;;;;4.70;1.97;;;16.60;81.70;;;;;;5035789;28;20490;-44
2022/05/28 09:56:47;;;;;;;6.33;2.47;;;16.70;80.80;;;;;;5035169;28;20471;-44
2022/05/28 09:59:35;;;;;;;5.87;2.10;;;16.90;78.80;;;;;;5035618;28;20444;-44
2022/05/28 10:02:11;;;;;;;7.13;2.37;;;16.90;78.00;;;;;;5035632;28;20483;-44
2022/05/28 10:04:48;;;;;;;13.87;2.30;;;17.00;77.30;;;;;;5035521;28;20436;-44
2022/05/28 10:07:26;;;;;;;5.83;2.27;;;16.70;76.60;;;;;;5035736;28;20434;-43
2022/05/28 10:09:54;;;;;;;5.33;2.13;;;16.60;78.10;;;;;;5034844;28;20514;-44
2022/05/28 10:12:24;;;;;;;8.20;2.10;;;16.70;79.80;;;;;;5035015;28;20447;-45
2022/05/28 10:15:04;;;;;;;5.13;2.00;;;16.60;80.70;;;;;;5035753;28;20432;-44
2022/05/28 10:17:32;;;;;;;5.63;1.67;;;16.70;82.90;;;;;;5035217;28;20502;-46
2022/05/28 10:20:02;;;;;;;6.00;1.80;;;16.40;82.00;;;;;;5034636;28;20496;-45
2022/05/28 10:22:30;;;;;;;7.60;1.73;;;16.30;82.00;;;;;;5034835;28;20785;-44
2022/05/28 10:25:00;;;;;;;6.50;2.53;;;16.30;82.30;;;;;;5035345;28;20752;-44
2022/05/28 10:27:45;;;;;;;6.40;2.23;;;16.20;82.00;;;;;;5035186;28;20454;-44
2022/05/28 10:30:24;;;;;;;6.13;2.37;;;16.40;82.80;;;;;;5034123;28;20458;-44
2022/05/28 10:32:52;;;;;;;10.50;2.10;;;15.80;83.00;;;;;;5033517;28;20958;-43
2022/05/28 10:35:23;;;;;;;9.40;2.60;;;16.20;83.70;;;;;;5034387;28;20432;-45
2022/05/28 10:37:51;;;;;;;8.37;2.37;;;16.20;83.30;;;;;;5034758;28;20490;-43
2022/05/28 10:40:22;;;;;;;6.50;2.53;;;16.00;83.30;;;;;;5034403;28;20459;-44
2022/05/28 10:42:49;;;;;;;5.90;1.90;;;16.40;83.50;;;;;;5033917;28;20438;-46
2022/05/28 10:45:18;;;;;;;4.77;1.90;;;16.60;83.40;;;;;;5034502;28;20437;-45
2022/05/28 10:48:03;;;;;;;5.33;1.90;;;16.60;81.80;;;;;;5034568;28;20898;-45
2022/05/28 10:50:40;;;;;;;6.00;1.80;;;16.70;80.10;;;;;;5032679;28;20499;-44
2022/05/28 10:53:19;;;;;;;5.67;1.90;;;16.70;79.70;;;;;;5034981;28;20440;-45
2022/05/28 10:55:58;;;;;;;6.63;2.27;;;16.70;80.20;;;;;;5033575;28;20489;-43
2022/05/28 10:58:36;;;;;;;5.90;2.00;;;16.90;80.70;;;;;;5033726;28;20476;-43
2022/05/28 11:01:04;;;;;;;8.00;2.60;;;16.70;80.60;;;;;;5033686;28;20469;-44
2022/05/28 11:04:06;;;;;;;7.10;1.90;;;16.70;80.70;;;;;;5033885;28;20804;-44
2022/05/28 11:06:56;;;;;;;11.93;2.10;;;16.50;80.70;;;;;;5034585;28;20435;-44
2022/05/28 11:09:33;;;;;;;9.27;3.60;;;16.60;80.10;;;;;;5034392;28;20471;-45
2022/05/28 11:12:10;;;;;;;8.63;2.80;;;16.70;80.00;;;;;;5033278;28;20443;-45
2022/05/28 11:15:10;;;;;;;5.83;2.23;;;16.80;78.80;;;;;;5032984;28;20473;-45
2022/05/28 11:17:52;;;;;;;4.43;2.43;;;16.80;77.70;;;;;;5034302;28;21256;-44
2022/05/28 11:20:26;;;;;;;9.60;2.87;;;16.90;76.80;;;;;;5033470;28;20779;-44
2022/05/28 11:23:33;;;;;;;9.80;2.40;;;16.90;75.30;;;;;;5033116;28;20439;-45
2022/05/28 11:26:07;;;;;;;4.77;2.30;;;16.80;73.80;;;;;;4953048;29;20458;-46
2022/05/28 11:28:54;;;;;;;6.63;2.30;;;17.10;74.30;;;;;;5017731;28;20459;-45
2022/05/28 11:31:29;;;;;;;5.13;2.03;;;16.90;73.50;;;;;;5035181;28;20439;-46
2022/05/28 11:33:59;;;;;;;5.40;2.20;;;17.20;72.90;;;;;;5035402;28;20443;-44
2022/05/28 11:36:30;;;;;;;6.20;2.83;;;17.40;73.60;;;;;;5034510;28;20472;-44
2022/05/28 11:39:05;;;;;;;6.97;2.70;;;17.40;73.60;;;;;;5034787;28;20435;-45
2022/05/28 11:41:36;;;;;;;6.70;2.33;;;17.40;73.40;;;;;;5034526;28;20441;-44
2022/05/28 11:44:06;;;;;;;6.23;2.47;;;17.40;73.20;;;;;;5034906;28;20428;-45
2022/05/28 11:46:39;;;;;;;8.03;3.13;;;17.40;72.80;;;;;;5033445;28;20464;-44
2022/05/28 11:51:59;;;;;;;5.10;2.20;;;17.50;73.50;;;;;;5032560;28;20443;-46
2022/05/28 11:54:33;;;;;;;7.13;2.33;;;17.60;77.30;;;;;;5033160;28;20813;-44
2022/05/28 11:57:04;;;;;;;6.60;1.87;;;17.50;78.30;;;;;;5032208;28;20469;-44
2022/05/28 11:59:32;;;;;;;4.97;1.73;;;17.70;79.10;;;;;;5031799;28;20452;-43
2022/05/28 12:02:05;;;;;;;7.10;2.40;;;17.80;79.40;;;;;;5032173;28;20441;-45
2022/05/28 12:04:32;;;;;;;6.40;2.00;;;17.90;79.80;;;;;;5032404;28;20433;-44
2022/05/28 12:07:04;;;;;;;5.23;1.90;;;17.90;80.20;;;;;;5032241;28;20441;-44
2022/05/28 12:09:40;;;;;;;5.20;2.00;;;18.00;80.40;;;;;;5032064;28;20530;-46
2022/05/28 12:12:21;;;;;;;8.57;2.17;;;17.90;79.70;;;;;;5032934;28;20532;-44
2022/05/28 12:14:51;;;;;;;7.13;2.50;;;17.80;79.60;;;;;;5032354;28;20443;-45
2022/05/28 12:17:26;;;;;;;4.67;2.53;;;17.80;79.50;;;;;;5032381;28;20475;-45
2022/05/28 12:19:55;;;;;;;7.53;2.90;;;17.80;80.30;;;;;;5031645;28;20824;-43
2022/05/28 12:22:26;;;;;;;5.00;2.30;;;17.80;80.50;;;;;;5032662;28;20442;-46
2022/05/28 12:25:03;;;;;;;4.17;1.83;;;17.80;80.10;;;;;;5032903;28;20452;-45
2022/05/28 12:27:38;;;;;;;6.80;2.70;;;18.10;80.10;;;;;;5032432;28;20433;-45
2022/05/28 12:30:08;;;;;;;5.30;1.77;;;18.20;77.70;;;;;;5032221;28;20461;-44
2022/05/28 12:32:45;;;;;;;3.43;1.90;;;18.20;78.20;;;;;;5032630;28;20434;-44
2022/05/28 12:35:34;;;;;;;5.63;2.03;;;18.40;77.60;;;;;;5032339;28;20436;-45
2022/05/28 12:38:13;;;;;;;6.20;2.13;;;18.40;76.20;;;;;;5032136;28;20481;-44
2022/05/28 12:40:52;;;;;;;8.70;2.70;;;18.20;75.70;;;;;;5031747;28;20545;-45
2022/05/28 12:43:25;;;;;;;4.50;1.90;;;18.30;75.30;;;;;;5032289;28;20445;-44
2022/05/28 12:45:54;;;;;;;3.43;1.60;;;17.70;77.60;;;;;;5032776;28;20442;-44
2022/05/28 12:48:24;;;;;;;3.90;2.10;;;17.50;79.70;;;;;;5033027;28;20950;-44
2022/05/28 12:51:12;;;;;;;4.00;1.57;;;17.90;80.50;;;;;;5030965;28;20461;-44
2022/05/28 12:53:49;;;;;;;4.70;1.60;;;18.20;80.10;;;;;;5032524;28;20446;-44
2022/05/28 12:56:26;;;;;;;3.80;1.93;;;18.60;79.50;;;;;;5035084;28;20468;-44
2022/05/28 12:58:54;;;;;;;3.47;1.40;;;18.60;78.80;;;;;;5035970;28;20509;-45
2022/05/28 13:01:25;;;;;;;4.23;1.27;;;18.60;78.20;;;;;;5036140;28;20496;-44
2022/05/28 13:03:53;;;;;;;5.90;1.77;;;18.90;78.00;;;;;;5035485;28;20443;-45
2022/05/28 13:06:25;;;;;;;5.30;2.03;;;19.00;77.60;;;;;;5036437;28;20438;-44